Terminal Aerodrome Forecast
Issued by NWS

Home | Current Version | Previous Version | Graphics & Text | Print | Product List | Glossary On
Versions: 1 2 3 4 5 6 7 8 9 10 11 12 13 14 15 16 17 18
368
FTUS43 KPAH 221120
TAFCGI
TAF
KCGI 221120Z 2212/2312 00000KT 3SM BR SKC
      TEMPO 2212/2213 1/2SM FG VV002
     FM221400 11005KT P6SM FEW045
     FM230000 14002KT P6SM SKC
     FM230500 00000KT 3SM BR SKC
      TEMPO 2308/2312 1SM BR BCFG=

USA.gov is the U.S. government's official web portal to all federal, state and local government web resources and services.